Time;durP1;ratioP1;P1;durP2;ratioP2;P2;SDS_P1;SDS_P2;PMS_P1;PMS_P2;Temp;Humidity;BMP_temperature;BMP_pressure;BME280_temperature;BME280_humidity;BME280_pressure;Samples;Min_cycle;Max_cycle;Signal;HPM_P1;HPM_P2
2024/02/10 00:00:04;;;;;;;;;;;9.40;82.20;;;;;;5017707;28;86781;-59
2024/02/10 00:02:31;;;;;;;;;;;9.40;82.30;;;;;;5018874;28;87333;-59
2024/02/10 00:04:57;;;;;;;;;;;9.30;82.40;;;;;;5017307;28;86935;-59
2024/02/10 00:07:22;;;;;;;;;;;9.30;82.40;;;;;;5018452;28;87851;-59
2024/02/10 00:09:48;;;;;;;;;;;9.30;82.50;;;;;;5017220;28;88734;-59
2024/02/10 00:12:14;;;;;;;;;;;9.40;82.50;;;;;;5021361;28;86892;-59
2024/02/10 00:14:43;;;;;;;;;;;9.30;82.50;;;;;;5016968;28;87341;-59
2024/02/10 00:17:09;;;;;;;;;;;9.30;82.50;;;;;;5018020;28;87216;-59
2024/02/10 00:19:37;;;;;;;;;;;9.30;82.50;;;;;;5017506;28;87821;-58
2024/02/10 00:22:06;;;;;;;;;;;9.30;82.50;;;;;;5019454;28;88541;-59
2024/02/10 00:24:33;;;;;;;;;;;9.30;82.50;;;;;;5017707;28;86269;-59
2024/02/10 00:27:01;;;;;;;;;;;9.30;82.60;;;;;;5018505;28;87377;-59
2024/02/10 00:29:27;;;;;;;;;;;9.30;82.70;;;;;;5016375;28;87700;-59
2024/02/10 00:31:53;;;;;;;;;;;9.30;82.70;;;;;;5018260;28;87920;-59
2024/02/10 00:34:25;;;;;;;;;;;9.30;82.80;;;;;;5019450;28;87765;-59
2024/02/10 00:36:51;;;;;;;;;;;9.30;82.80;;;;;;5019793;28;86768;-59
2024/02/10 00:39:16;;;;;;;;;;;9.30;82.90;;;;;;5015409;28;87942;-59
2024/02/10 00:41:42;;;;;;;;;;;9.30;82.90;;;;;;5011743;28;87542;-59
2024/02/10 00:44:07;;;;;;;;;;;9.30;82.90;;;;;;5015349;28;87079;-59
2024/02/10 00:46:33;;;;;;;;;;;9.30;83.00;;;;;;5018772;28;86876;-59
2024/02/10 00:49:00;;;;;;;;;;;9.30;83.00;;;;;;5015781;28;87021;-59
2024/02/10 00:51:27;;;;;;;;;;;9.30;83.00;;;;;;5019548;28;86965;-59
2024/02/10 00:53:53;;;;;;;;;;;9.30;83.00;;;;;;5021768;28;88131;-59
2024/02/10 00:56:18;;;;;;;;;;;9.30;82.90;;;;;;5014804;28;87988;-59
2024/02/10 00:58:44;;;;;;;;;;;9.30;82.90;;;;;;5019423;28;87807;-59
2024/02/10 01:01:12;;;;;;;;;;;9.30;82.80;;;;;;5017936;28;87481;-59
2024/02/10 01:03:44;;;;;;;;;;;9.30;82.70;;;;;;5015249;28;86883;-59
2024/02/10 01:06:12;;;;;;;;;;;9.20;82.60;;;;;;5012689;28;88148;-59
2024/02/10 01:08:40;;;;;;;;;;;9.20;82.60;;;;;;5018942;28;88882;-58
2024/02/10 01:11:10;;;;;;;;;;;9.30;82.60;;;;;;5011841;28;88359;-59
2024/02/10 01:13:36;;;;;;;;;;;9.20;82.50;;;;;;5017988;28;87880;-60
2024/02/10 01:16:01;;;;;;;;;;;9.20;82.40;;;;;;5019001;28;88197;-59
2024/02/10 01:18:27;;;;;;;;;;;9.20;82.40;;;;;;5018667;28;86956;-60
2024/02/10 01:20:52;;;;;;;;;;;9.20;82.30;;;;;;5012257;28;88391;-59
2024/02/10 01:23:18;;;;;;;;;;;9.20;82.20;;;;;;5016496;28;86982;-59
2024/02/10 01:25:43;;;;;;;;;;;9.20;82.20;;;;;;5017464;28;86912;-59
2024/02/10 01:28:10;;;;;;;;;;;9.20;82.10;;;;;;5016043;28;88120;-59
2024/02/10 01:30:36;;;;;;;;;;;9.20;82.10;;;;;;5017176;28;87036;-59
2024/02/10 01:33:01;;;;;;;;;;;9.20;82.00;;;;;;5016586;28;87363;-59
2024/02/10 01:35:27;;;;;;;;;;;9.20;82.00;;;;;;5016118;28;87377;-59
2024/02/10 01:37:52;;;;;;;;;;;9.20;82.00;;;;;;5016295;28;86258;-59
2024/02/10 01:40:18;;;;;;;;;;;9.20;81.90;;;;;;5013575;28;88461;-60
2024/02/10 01:42:44;;;;;;;;;;;9.20;82.00;;;;;;5016145;28;86919;-58
2024/02/10 01:45:14;;;;;;;;;;;9.20;81.90;;;;;;5010630;28;87845;-57
2024/02/10 01:47:42;;;;;;;;;;;9.20;81.90;;;;;;5017193;28;87344;-59
2024/02/10 01:50:08;;;;;;;;;;;9.20;81.90;;;;;;5011420;28;87185;-59
2024/02/10 01:52:35;;;;;;;;;;;9.20;81.90;;;;;;5017961;28;88183;-59
2024/02/10 01:55:01;;;;;;;;;;;9.10;81.80;;;;;;5014845;28;87438;-59
2024/02/10 01:57:27;;;;;;;;;;;9.10;81.80;;;;;;5023009;28;87052;-59
2024/02/10 01:59:53;;;;;;;;;;;9.10;81.80;;;;;;5023876;28;87898;-59
2024/02/10 02:02:18;;;;;;;;;;;9.20;81.90;;;;;;5025367;28;86192;-59
2024/02/10 02:04:44;;;;;;;;;;;9.10;81.80;;;;;;5024913;28;87026;-58
2024/02/10 02:07:10;;;;;;;;;;;9.10;81.90;;;;;;5021141;28;88385;-59
2024/02/10 02:09:36;;;;;;;;;;;9.10;81.80;;;;;;5024052;28;87957;-59
2024/02/10 02:12:07;;;;;;;;;;;9.10;81.90;;;;;;5017480;28;87588;-59
2024/02/10 02:14:36;;;;;;;;;;;9.10;81.90;;;;;;5020731;28;88564;-59
2024/02/10 02:17:04;;;;;;;;;;;9.10;81.90;;;;;;5024409;28;87006;-59
2024/02/10 02:19:30;;;;;;;;;;;9.10;82.00;;;;;;5021841;28;88030;-59
2024/02/10 02:21:55;;;;;;;;;;;9.10;81.90;;;;;;5024014;28;87274;-59
2024/02/10 02:24:22;;;;;;;;;;;9.10;81.90;;;;;;5025062;28;86965;-59
2024/02/10 02:26:48;;;;;;;;;;;9.10;81.90;;;;;;5022059;28;87919;-59
2024/02/10 02:29:13;;;;;;;;;;;9.00;81.80;;;;;;5023685;28;86899;-59
2024/02/10 02:31:39;;;;;;;;;;;9.10;81.90;;;;;;5022120;28;86802;-59
2024/02/10 02:34:04;;;;;;;;;;;9.10;82.00;;;;;;5022738;28;88295;-59
2024/02/10 02:36:31;;;;;;;;;;;9.00;81.90;;;;;;5021707;28;87086;-59
2024/02/10 02:38:58;;;;;;;;;;;9.00;82.00;;;;;;5023288;28;87920;-59
2024/02/10 02:41:25;;;;;;;;;;;9.10;82.00;;;;;;5015633;28;88501;-59
2024/02/10 02:43:51;;;;;;;;;;;9.00;81.90;;;;;;5024847;28;86920;-59
2024/02/10 02:46:18;;;;;;;;;;;9.00;81.90;;;;;;5020125;28;87783;-59
2024/02/10 02:48:43;;;;;;;;;;;9.00;82.00;;;;;;5019830;28;86980;-57
2024/02/10 02:51:09;;;;;;;;;;;9.00;82.00;;;;;;5024740;28;86254;-59
2024/02/10 02:53:35;;;;;;;;;;;9.00;82.00;;;;;;5018029;28;88423;-59
2024/02/10 02:56:01;;;;;;;;;;;9.00;82.00;;;;;;5026376;28;86987;-59
2024/02/10 02:58:28;;;;;;;;;;;9.00;81.90;;;;;;5019967;28;87850;-59
2024/02/10 03:00:53;;;;;;;;;;;9.00;82.00;;;;;;5019095;28;88463;-60
2024/02/10 03:03:19;;;;;;;;;;;9.00;81.90;;;;;;5021910;28;87259;-59
2024/02/10 03:05:45;;;;;;;;;;;9.00;82.00;;;;;;5021937;28;88450;-57
2024/02/10 03:08:10;;;;;;;;;;;9.00;82.00;;;;;;5019217;28;86996;-59
2024/02/10 03:10:36;;;;;;;;;;;9.00;82.00;;;;;;5017540;28;87062;-59
2024/02/10 03:13:02;;;;;;;;;;;9.00;82.00;;;;;;5016111;28;86999;-59
2024/02/10 03:15:27;;;;;;;;;;;9.00;82.00;;;;;;5015452;28;86200;-58
2024/02/10 03:17:54;;;;;;;;;;;9.00;82.00;;;;;;5019343;28;87048;-59
2024/02/10 03:20:23;;;;;;;;;;;9.00;82.10;;;;;;5018542;28;88478;-59
2024/02/10 03:22:54;;;;;;;;;;;9.00;82.00;;;;;;5017738;28;87909;-59
2024/02/10 03:25:22;;;;;;;;;;;8.90;82.00;;;;;;5022296;28;88990;-59
2024/02/10 03:27:48;;;;;;;;;;;8.90;82.10;;;;;;5017380;28;87055;-59
2024/02/10 03:30:15;;;;;;;;;;;8.90;82.00;;;;;;5016939;28;87305;-60
2024/02/10 03:32:42;;;;;;;;;;;8.90;82.00;;;;;;5016618;28;88928;-59
2024/02/10 03:35:08;;;;;;;;;;;9.00;82.10;;;;;;5016929;28;87063;-59
2024/02/10 03:37:35;;;;;;;;;;;8.90;82.00;;;;;;5016663;28;87941;-59
2024/02/10 03:40:04;;;;;;;;;;;8.90;82.00;;;;;;5015075;28;86566;-58
2024/02/10 03:42:33;;;;;;;;;;;8.90;82.00;;;;;;5016619;28;87073;-60
2024/02/10 03:44:58;;;;;;;;;;;8.90;82.00;;;;;;5019684;28;86832;-60
2024/02/10 03:47:26;;;;;;;;;;;8.90;81.90;;;;;;5019287;28;88554;-59
2024/02/10 03:49:51;;;;;;;;;;;8.90;82.00;;;;;;5019483;28;88821;-59
2024/02/10 03:52:17;;;;;;;;;;;8.90;82.00;;;;;;5016249;28;88696;-60
2024/02/10 03:54:42;;;;;;;;;;;8.90;82.10;;;;;;5016588;28;86945;-59
2024/02/10 03:57:08;;;;;;;;;;;8.90;82.30;;;;;;5021258;28;87617;-59
2024/02/10 03:59:35;;;;;;;;;;;8.90;82.80;;;;;;5019245;28;87358;-59
2024/02/10 04:02:01;;;;;;;;;;;8.90;82.20;;;;;;5020181;28;87010;-59
2024/02/10 04:04:28;;;;;;;;;;;8.90;82.20;;;;;;5017823;28;86202;-59
2024/02/10 04:06:53;;;;;;;;;;;8.90;82.30;;;;;;5018483;28;88536;-59
2024/02/10 04:09:21;;;;;;;;;;;8.90;82.40;;;;;;5020353;28;86923;-58
2024/02/10 04:11:46;;;;;;;;;;;8.90;82.30;;;;;;5017738;28;89889;-59
2024/02/10 04:14:20;;;;;;;;;;;8.90;82.30;;;;;;5016155;28;87042;-60
2024/02/10 04:16:52;;;;;;;;;;;8.80;82.30;;;;;;5016194;28;87422;-59
2024/02/10 04:19:20;;;;;;;;;;;8.80;82.40;;;;;;5018622;28;87506;-59
2024/02/10 04:21:52;;;;;;;;;;;8.80;82.20;;;;;;5016374;28;87041;-59
2024/02/10 04:24:17;;;;;;;;;;;8.80;82.30;;;;;;5016346;28;87121;-59
2024/02/10 04:26:43;;;;;;;;;;;8.80;82.30;;;;;;5019709;28;86814;-59
2024/02/10 04:29:09;;;;;;;;;;;8.80;82.30;;;;;;5019728;28;86220;-59
2024/02/10 04:31:39;;;;;;;;;;;8.80;82.40;;;;;;5018508;28;86951;-60
2024/02/10 04:34:05;;;;;;;;;;;8.80;82.40;;;;;;5016732;28;86892;-59
2024/02/10 04:36:31;;;;;;;;;;;8.80;82.30;;;;;;5017929;28;88337;-59
2024/02/10 04:38:57;;;;;;;;;;;8.80;82.40;;;;;;5016188;28;88587;-59
2024/02/10 04:41:22;;;;;;;;;;;8.80;82.40;;;;;;5012384;28;87107;-59
2024/02/10 04:43:48;;;;;;;;;;;8.80;82.40;;;;;;5015690;28;87004;-59
2024/02/10 04:46:16;;;;;;;;;;;8.80;82.50;;;;;;5015043;28;87476;-59
2024/02/10 04:48:42;;;;;;;;;;;8.80;82.30;;;;;;5018121;28;86971;-59
2024/02/10 04:51:08;;;;;;;;;;;8.80;82.40;;;;;;5017057;28;86868;-59
2024/02/10 04:53:34;;;;;;;;;;;8.80;82.50;;;;;;5019680;28;87739;-59
2024/02/10 04:55:59;;;;;;;;;;;8.80;82.50;;;;;;5013753;28;86835;-60
2024/02/10 04:58:25;;;;;;;;;;;8.80;82.60;;;;;;5016134;28;87944;-59
2024/02/10 05:00:50;;;;;;;;;;;8.70;82.50;;;;;;5016218;28;87944;-58
2024/02/10 05:03:16;;;;;;;;;;;8.80;82.80;;;;;;5014881;28;87629;-59
2024/02/10 05:05:41;;;;;;;;;;;8.70;82.60;;;;;;5017705;28;87417;-60
2024/02/10 05:08:12;;;;;;;;;;;8.70;82.80;;;;;;5015967;28;87079;-58
2024/02/10 05:10:38;;;;;;;;;;;8.70;82.70;;;;;;5017281;28;87834;-59
2024/02/10 05:13:04;;;;;;;;;;;8.70;82.90;;;;;;5019577;28;88694;-59
2024/02/10 05:15:31;;;;;;;;;;;8.70;82.70;;;;;;5016911;28;88030;-59
2024/02/10 05:17:58;;;;;;;;;;;8.70;82.70;;;;;;5017299;28;87730;-58
2024/02/10 05:20:25;;;;;;;;;;;8.70;82.80;;;;;;5016559;28;86961;-59
2024/02/10 05:22:52;;;;;;;;;;;8.70;82.80;;;;;;5013182;28;87881;-59
2024/02/10 05:25:20;;;;;;;;;;;8.70;82.70;;;;;;5013075;28;88577;-59
2024/02/10 05:27:49;;;;;;;;;;;8.70;82.70;;;;;;5013443;28;87062;-59
2024/02/10 05:30:20;;;;;;;;;;;8.70;82.70;;;;;;5013362;28;87037;-60
2024/02/10 05:32:47;;;;;;;;;;;8.70;82.70;;;;;;5011670;28;88797;-58
2024/02/10 05:35:18;;;;;;;;;;;8.70;82.80;;;;;;5021324;28;86996;-60
2024/02/10 05:37:45;;;;;;;;;;;8.70;82.70;;;;;;5011843;28;88644;-59
2024/02/10 05:40:12;;;;;;;;;;;8.70;82.70;;;;;;5013843;28;86988;-59
2024/02/10 05:42:37;;;;;;;;;;;8.70;82.80;;;;;;5012789;28;86836;-60
2024/02/10 05:45:06;;;;;;;;;;;8.70;82.70;;;;;;5015777;28;87464;-59
2024/02/10 05:47:34;;;;;;;;;;;8.70;82.80;;;;;;5020489;28;87003;-59
2024/02/10 05:50:01;;;;;;;;;;;8.70;82.80;;;;;;5017127;28;87890;-59
2024/02/10 05:52:26;;;;;;;;;;;8.70;82.80;;;;;;5013446;28;87948;-59
2024/02/10 05:54:54;;;;;;;;;;;8.70;82.80;;;;;;5015583;28;87612;-59
2024/02/10 05:57:20;;;;;;;;;;;8.70;82.90;;;;;;5014258;28;87876;-60
2024/02/10 05:59:46;;;;;;;;;;;8.70;82.90;;;;;;5016178;28;87055;-59
2024/02/10 06:02:11;;;;;;;;;;;8.70;83.50;;;;;;5014375;28;86995;-59
2024/02/10 06:04:41;;;;;;;;;;;8.70;82.90;;;;;;5013856;28;87308;-59
2024/02/10 06:07:07;;;;;;;;;;;8.70;82.90;;;;;;5015624;28;86215;-59
2024/02/10 06:09:33;;;;;;;;;;;8.70;82.90;;;;;;5014383;28;87157;-60
2024/02/10 06:12:04;;;;;;;;;;;8.70;82.90;;;;;;5017207;28;87476;-59
2024/02/10 06:14:30;;;;;;;;;;;8.70;82.90;;;;;;5013869;28;87871;-59
2024/02/10 06:16:57;;;;;;;;;;;8.60;82.90;;;;;;5018133;28;87560;-59
2024/02/10 06:19:23;;;;;;;;;;;8.70;83.00;;;;;;5014585;28;87685;-59
2024/02/10 06:21:49;;;;;;;;;;;8.60;82.90;;;;;;5016778;28;86963;-59
2024/02/10 06:24:16;;;;;;;;;;;8.70;83.00;;;;;;5008329;28;87490;-59
2024/02/10 06:26:42;;;;;;;;;;;8.70;83.00;;;;;;5014222;28;86997;-59
2024/02/10 06:29:07;;;;;;;;;;;8.70;83.00;;;;;;5014360;28;87519;-58
2024/02/10 06:31:33;;;;;;;;;;;8.70;83.00;;;;;;5010049;28;87749;-59
2024/02/10 06:34:00;;;;;;;;;;;8.70;82.90;;;;;;5018452;28;87018;-59
2024/02/10 06:36:26;;;;;;;;;;;8.70;82.90;;;;;;5017921;28;88159;-59
2024/02/10 06:38:51;;;;;;;;;;;8.70;82.90;;;;;;5007856;28;88428;-59
2024/02/10 06:41:18;;;;;;;;;;;8.70;82.90;;;;;;5016728;28;87062;-59
2024/02/10 06:43:44;;;;;;;;;;;8.60;82.90;;;;;;5014848;28;87461;-59
2024/02/10 06:46:10;;;;;;;;;;;8.70;83.40;;;;;;5017728;28;87328;-59
2024/02/10 06:48:36;;;;;;;;;;;8.70;82.90;;;;;;5024170;28;86882;-59
2024/02/10 06:51:01;;;;;;;;;;;8.70;82.90;;;;;;5014790;28;88532;-59
2024/02/10 06:53:28;;;;;;;;;;;8.70;82.90;;;;;;5021083;28;87026;-59
2024/02/10 06:55:55;;;;;;;;;;;8.70;82.80;;;;;;5018289;28;87817;-60
2024/02/10 06:58:22;;;;;;;;;;;8.70;82.90;;;;;;5016716;28;87375;-59
2024/02/10 07:00:48;;;;;;;;;;;8.70;82.90;;;;;;5013848;28;86936;-59
2024/02/10 07:03:17;;;;;;;;;;;8.70;82.90;;;;;;5018881;28;87871;-59
2024/02/10 07:05:49;;;;;;;;;;;8.70;82.90;;;;;;5018574;28;87015;-60
2024/02/10 07:08:16;;;;;;;;;;;8.70;82.90;;;;;;5018958;28;86890;-59
2024/02/10 07:10:46;;;;;;;;;;;8.70;82.90;;;;;;5019054;28;88557;-59
2024/02/10 07:13:11;;;;;;;;;;;8.70;82.90;;;;;;5014274;28;87151;-59
2024/02/10 07:15:37;;;;;;;;;;;8.70;82.90;;;;;;5013841;28;86914;-59
2024/02/10 07:18:06;;;;;;;;;;;8.70;82.90;;;;;;5017469;28;87617;-59
2024/02/10 07:20:33;;;;;;;;;;;8.70;82.90;;;;;;5016986;28;86316;-61
2024/02/10 07:23:00;;;;;;;;;;;8.70;83.00;;;;;;5019583;28;86797;-59
2024/02/10 07:25:26;;;;;;;;;;;8.70;82.90;;;;;;5022814;27;88917;-59
2024/02/10 07:27:52;;;;;;;;;;;8.70;82.90;;;;;;5012408;28;87819;-60
2024/02/10 07:30:17;;;;;;;;;;;8.70;82.90;;;;;;5020297;28;87471;-60
2024/02/10 07:32:44;;;;;;;;;;;8.70;82.80;;;;;;5017170;28;86940;-60
2024/02/10 07:35:10;;;;;;;;;;;8.70;82.80;;;;;;5020766;28;87364;-59
2024/02/10 07:37:35;;;;;;;;;;;8.70;82.70;;;;;;5016358;28;87615;-59
2024/02/10 07:40:03;;;;;;;;;;;8.70;82.80;;;;;;5020667;28;87123;-59
2024/02/10 07:42:30;;;;;;;;;;;8.70;83.40;;;;;;5020226;28;86784;-59
2024/02/10 07:44:56;;;;;;;;;;;8.70;82.80;;;;;;5019528;28;86634;-59
2024/02/10 07:47:22;;;;;;;;;;;8.70;82.80;;;;;;5016412;28;87306;-58
2024/02/10 07:49:52;;;;;;;;;;;8.70;82.70;;;;;;5016429;28;88398;-59
2024/02/10 07:52:21;;;;;;;;;;;8.70;82.50;;;;;;5018147;28;87905;-59
2024/02/10 07:54:49;;;;;;;;;;;8.70;82.50;;;;;;5013771;28;88339;-59
2024/02/10 07:57:19;;;;;;;;;;;8.80;82.50;;;;;;5014173;28;88273;-59
2024/02/10 07:59:54;;;;;;;;;;;8.70;82.40;;;;;;5016447;28;87026;-58
2024/02/10 08:02:25;;;;;;;;;;;8.80;82.30;;;;;;5016764;28;86924;-59
2024/02/10 08:04:53;;;;;;;;;;;8.70;82.30;;;;;;5019845;28;87763;-59
2024/02/10 08:07:19;;;;;;;;;;;8.70;82.50;;;;;;5019514;28;86919;-59
2024/02/10 08:09:45;;;;;;;;;;;8.70;82.30;;;;;;5019496;28;87851;-59
2024/02/10 08:12:12;;;;;;;;;;;8.70;82.50;;;;;;5016777;28;87016;-59
2024/02/10 08:14:39;;;;;;;;;;;8.80;82.50;;;;;;5016918;28;87206;-59
2024/02/10 08:17:07;;;;;;;;;;;8.80;82.40;;;;;;5015774;28;89157;-58
2024/02/10 08:19:33;;;;;;;;;;;8.80;82.30;;;;;;5015746;28;87008;-59
2024/02/10 08:22:02;;;;;;;;;;;8.80;82.30;;;;;;5018358;28;87879;-59
2024/02/10 08:24:31;;;;;;;;;;;8.80;82.50;;;;;;5016018;28;88882;-58
2024/02/10 08:26:56;;;;;;;;;;;8.80;82.20;;;;;;5017694;28;87074;-59
2024/02/10 08:29:22;;;;;;;;;;;8.80;82.60;;;;;;5018611;28;86906;-59
2024/02/10 08:31:50;;;;;;;;;;;8.80;82.70;;;;;;5014010;28;87025;-59
2024/02/10 08:34:16;;;;;;;;;;;8.80;82.70;;;;;;5014893;28;87975;-59
2024/02/10 08:36:41;;;;;;;;;;;8.80;82.80;;;;;;5017262;28;87371;-59
2024/02/10 08:39:07;;;;;;;;;;;8.80;82.90;;;;;;5019834;28;87036;-59
2024/02/10 08:41:33;;;;;;;;;;;8.80;83.00;;;;;;5016967;28;88145;-59
2024/02/10 08:43:59;;;;;;;;;;;8.80;83.20;;;;;;5016601;28;87458;-59
2024/02/10 08:46:25;;;;;;;;;;;8.80;83.10;;;;;;5016593;28;87531;-59
2024/02/10 08:48:52;;;;;;;;;;;8.80;83.20;;;;;;5014496;28;87574;-59
2024/02/10 08:51:17;;;;;;;;;;;8.80;83.30;;;;;;5014025;28;88600;-59
2024/02/10 08:53:43;;;;;;;;;;;8.90;83.40;;;;;;5019444;28;87061;-59
2024/02/10 08:56:12;;;;;;;;;;;8.90;83.40;;;;;;5016114;28;87134;-59
2024/02/10 08:58:41;;;;;;;;;;;8.90;83.60;;;;;;5015886;28;86252;-59
2024/02/10 09:01:15;;;;;;;;;;;8.90;83.40;;;;;;5018943;28;86878;-59
2024/02/10 09:03:52;;;;;;;;;;;8.90;83.40;;;;;;5018925;28;88682;-59
2024/02/10 09:06:21;;;;;;;;;;;8.90;83.40;;;;;;5013802;28;87857;-59
2024/02/10 09:08:48;;;;;;;;;;;8.90;83.40;;;;;;5017615;28;88794;-59
2024/02/10 09:11:14;;;;;;;;;;;8.90;83.40;;;;;;5015788;28;87981;-59
2024/02/10 09:13:40;;;;;;;;;;;8.90;83.40;;;;;;5020781;28;86788;-59
2024/02/10 09:16:06;;;;;;;;;;;9.00;83.60;;;;;;5014727;28;87493;-59
2024/02/10 09:18:31;;;;;;;;;;;9.00;83.70;;;;;;5012275;28;87469;-59
2024/02/10 09:20:57;;;;;;;;;;;9.00;83.80;;;;;;5012921;28;86960;-59
2024/02/10 09:23:22;;;;;;;;;;;9.00;83.90;;;;;;5018046;28;86614;-59
2024/02/10 09:25:48;;;;;;;;;;;9.00;84.00;;;;;;5008624;28;87017;-59
2024/02/10 09:28:13;;;;;;;;;;;9.00;84.10;;;;;;5015421;28;86976;-59
2024/02/10 09:30:40;;;;;;;;;;;9.00;84.10;;;;;;5012683;28;88380;-58
2024/02/10 09:33:07;;;;;;;;;;;9.00;84.00;;;;;;5018228;28;87042;-59
2024/02/10 09:35:39;;;;;;;;;;;9.00;84.00;;;;;;5014449;28;87524;-59
2024/02/10 09:38:07;;;;;;;;;;;9.00;84.00;;;;;;5018649;28;86858;-59
2024/02/10 09:40:32;;;;;;;;;;;9.00;84.00;;;;;;5013929;28;87995;-59
2024/02/10 09:43:01;;;;;;;;;;;9.10;83.90;;;;;;5015448;28;87480;-59
2024/02/10 09:45:28;;;;;;;;;;;9.10;83.70;;;;;;5011880;28;86868;-59
2024/02/10 09:47:54;;;;;;;;;;;9.10;83.70;;;;;;5017873;28;86799;-58
2024/02/10 09:50:20;;;;;;;;;;;9.10;83.70;;;;;;5015061;28;87543;-59
2024/02/10 09:52:47;;;;;;;;;;;9.10;83.80;;;;;;5016383;28;87033;-59
2024/02/10 09:55:14;;;;;;;;;;;9.10;83.90;;;;;;5017552;28;87905;-59
2024/02/10 09:57:42;;;;;;;;;;;9.10;84.20;;;;;;5017406;28;86937;-59
2024/02/10 10:00:08;;;;;;;;;;;9.10;84.10;;;;;;5015811;28;88061;-58
2024/02/10 10:02:34;;;;;;;;;;;9.10;84.20;;;;;;5011716;28;88611;-59
2024/02/10 10:05:00;;;;;;;;;;;9.10;84.20;;;;;;5014434;28;87156;-59
2024/02/10 10:07:26;;;;;;;;;;;9.10;84.20;;;;;;5010415;28;87610;-59
2024/02/10 10:09:52;;;;;;;;;;;9.10;84.20;;;;;;5010974;28;88749;-59
2024/02/10 10:12:18;;;;;;;;;;;9.10;84.20;;;;;;5014913;28;86198;-58
2024/02/10 10:14:44;;;;;;;;;;;9.10;84.20;;;;;;5016792;28;87314;-59
2024/02/10 10:17:13;;;;;;;;;;;9.10;84.20;;;;;;5019134;28;87537;-59
2024/02/10 10:19:39;;;;;;;;;;;9.10;84.20;;;;;;5019185;28;88147;-59
2024/02/10 10:22:04;;;;;;;;;;;9.20;84.30;;;;;;5016893;28;87844;-59
2024/02/10 10:24:30;;;;;;;;;;;9.20;84.30;;;;;;5019463;28;86750;-59
2024/02/10 10:26:56;;;;;;;;;;;9.10;84.40;;;;;;5019003;28;86891;-59
2024/02/10 10:29:22;;;;;;;;;;;9.20;84.30;;;;;;5021540;28;87452;-59
2024/02/10 10:31:49;;;;;;;;;;;9.10;84.20;;;;;;5019659;28;86807;-59
2024/02/10 10:34:17;;;;;;;;;;;9.20;84.20;;;;;;5019295;28;87023;-59
2024/02/10 10:36:43;;;;;;;;;;;9.20;84.00;;;;;;5020461;28;86580;-58
2024/02/10 10:39:10;;;;;;;;;;;9.20;83.90;;;;;;5024246;28;86885;-59
2024/02/10 10:41:38;;;;;;;;;;;9.20;84.20;;;;;;5012483;28;87553;-59
2024/02/10 10:44:04;;;;;;;;;;;9.20;84.10;;;;;;5016813;28;88189;-59
2024/02/10 10:46:30;;;;;;;;;;;9.20;84.20;;;;;;5016638;28;87712;-59
2024/02/10 10:49:01;;;;;;;;;;;9.20;84.10;;;;;;5017656;28;88670;-59
2024/02/10 10:51:47;;;;;;;;;;;9.20;84.20;;;;;;5021066;28;86851;-59
2024/02/10 10:54:14;;;;;;;;;;;9.30;84.30;;;;;;5019724;28;87536;-59
2024/02/10 10:56:40;;;;;;;;;;;9.30;84.20;;;;;;5014556;28;88649;-59
2024/02/10 10:59:09;;;;;;;;;;;9.30;84.20;;;;;;5020066;28;87181;-59
2024/02/10 11:01:37;;;;;;;;;;;9.30;84.20;;;;;;5020196;28;87044;-59
2024/02/10 11:04:03;;;;;;;;;;;9.30;84.10;;;;;;5020361;28;87021;-59
2024/02/10 11:06:28;;;;;;;;;;;9.30;84.20;;;;;;5013542;28;88004;-59
2024/02/10 11:08:54;;;;;;;;;;;9.30;84.20;;;;;;5019512;28;88432;-59
2024/02/10 11:11:20;;;;;;;;;;;9.30;84.00;;;;;;5017707;28;87186;-59
2024/02/10 11:13:45;;;;;;;;;;;9.30;84.00;;;;;;5020555;28;86950;-58
2024/02/10 11:16:14;;;;;;;;;;;9.30;84.10;;;;;;5017365;28;87608;-59
2024/02/10 11:18:46;;;;;;;;;;;9.30;84.10;;;;;;5018302;28;87036;-59
2024/02/10 11:21:25;;;;;;;;;;;9.40;84.10;;;;;;5020234;28;86725;-59
2024/02/10 11:24:00;;;;;;;;;;;9.40;84.00;;;;;;5016539;28;88272;-59
2024/02/10 11:26:26;;;;;;;;;;;9.40;84.00;;;;;;5013424;28;87859;-59
2024/02/10 11:28:59;;;;;;;;;;;9.40;84.00;;;;;;5011780;28;87476;-59
2024/02/10 11:31:25;;;;;;;;;;;9.40;84.00;;;;;;5017244;28;87068;-59
2024/02/10 11:33:51;;;;;;;;;;;9.40;83.80;;;;;;5018763;28;88128;-59
2024/02/10 11:36:19;;;;;;;;;;;9.40;83.80;;;;;;5019670;28;86983;-58
2024/02/10 11:38:45;;;;;;;;;;;9.40;84.10;;;;;;5016363;28;87018;-57
2024/02/10 11:41:12;;;;;;;;;;;9.40;83.90;;;;;;5016353;28;86943;-59
2024/02/10 11:43:38;;;;;;;;;;;9.40;83.80;;;;;;5018120;28;87518;-59
2024/02/10 11:46:04;;;;;;;;;;;9.40;84.00;;;;;;5016543;28;87782;-59
2024/02/10 11:48:30;;;;;;;;;;;9.50;83.90;;;;;;5018055;28;87572;-59
2024/02/10 11:50:59;;;;;;;;;;;9.40;83.80;;;;;;5018232;28;86199;-59
2024/02/10 11:53:25;;;;;;;;;;;9.50;84.10;;;;;;5014214;28;86964;-58
2024/02/10 11:55:50;;;;;;;;;;;9.50;84.00;;;;;;5015792;28;87656;-59
2024/02/10 11:58:18;;;;;;;;;;;9.50;83.80;;;;;;5017457;28;87832;-59
2024/02/10 12:00:46;;;;;;;;;;;9.50;84.00;;;;;;5018157;28;89019;-59
2024/02/10 12:03:15;;;;;;;;;;;9.50;84.00;;;;;;5016937;28;88617;-58
2024/02/10 12:05:42;;;;;;;;;;;9.50;84.10;;;;;;5018750;28;86991;-59
2024/02/10 12:08:09;;;;;;;;;;;9.50;84.20;;;;;;5013765;28;87675;-59
2024/02/10 12:10:35;;;;;;;;;;;9.50;84.00;;;;;;5016919;28;87005;-59
2024/02/10 12:13:00;;;;;;;;;;;9.50;84.20;;;;;;5016684;28;87878;-59
2024/02/10 12:15:28;;;;;;;;;;;9.50;84.20;;;;;;5017145;28;86575;-59
2024/02/10 12:17:55;;;;;;;;;;;9.50;84.10;;;;;;5019603;28;86913;-59
2024/02/10 12:20:23;;;;;;;;;;;9.50;84.00;;;;;;5016257;28;88000;-58
2024/02/10 12:22:49;;;;;;;;;;;9.60;84.10;;;;;;5018750;28;89996;-59
2024/02/10 12:25:14;;;;;;;;;;;9.50;83.90;;;;;;5020333;28;87338;-59
2024/02/10 12:27:40;;;;;;;;;;;9.50;84.00;;;;;;5017750;28;86954;-59
2024/02/10 12:30:06;;;;;;;;;;;9.60;84.20;;;;;;5016007;28;87026;-60
2024/02/10 12:32:32;;;;;;;;;;;9.60;84.20;;;;;;5014782;28;87170;-59
2024/02/10 12:35:10;;;;;;;;;;;9.60;84.30;;;;;;5015406;28;88685;-58
2024/02/10 12:37:36;;;;;;;;;;;9.60;84.10;;;;;;5015422;28;86836;-59
2024/02/10 12:40:03;;;;;;;;;;;9.60;84.20;;;;;;5016283;28;86698;-59
2024/02/10 12:42:30;;;;;;;;;;;9.60;84.20;;;;;;5013896;28;88471;-59
2024/02/10 12:44:55;;;;;;;;;;;9.60;84.30;;;;;;5015634;28;87485;-59
2024/02/10 12:47:21;;;;;;;;;;;9.60;84.20;;;;;;5017306;28;87834;-57
2024/02/10 12:49:46;;;;;;;;;;;9.60;84.10;;;;;;5020252;28;87486;-59
2024/02/10 12:52:16;;;;;;;;;;;9.60;84.20;;;;;;5017177;28;86819;-59
2024/02/10 12:54:42;;;;;;;;;;;9.60;84.10;;;;;;5016491;28;87581;-59
2024/02/10 12:57:07;;;;;;;;;;;9.70;84.00;;;;;;5017874;28;87040;-59
2024/02/10 12:59:33;;;;;;;;;;;9.70;84.10;;;;;;5015290;28;87055;-59
2024/02/10 13:01:59;;;;;;;;;;;9.70;84.20;;;;;;5016294;28;88617;-59
2024/02/10 13:04:25;;;;;;;;;;;9.70;84.10;;;;;;5018170;28;86021;-59
2024/02/10 13:06:50;;;;;;;;;;;9.70;84.10;;;;;;5016948;28;86990;-59
2024/02/10 13:09:16;;;;;;;;;;;9.70;84.00;;;;;;5017413;28;87509;-59
2024/02/10 13:11:41;;;;;;;;;;;9.70;83.90;;;;;;5019019;28;87578;-59
2024/02/10 13:14:09;;;;;;;;;;;9.70;84.00;;;;;;5017145;28;87379;-59
2024/02/10 13:16:35;;;;;;;;;;;9.70;84.00;;;;;;5016280;28;86951;-59
2024/02/10 13:19:00;;;;;;;;;;;9.70;83.80;;;;;;5017647;28;87711;-59
2024/02/10 13:21:26;;;;;;;;;;;9.70;84.00;;;;;;5015821;28;88347;-59
2024/02/10 13:23:52;;;;;;;;;;;9.70;84.00;;;;;;5019254;28;86941;-59
2024/02/10 13:26:18;;;;;;;;;;;9.70;84.00;;;;;;5010255;28;87126;-59
2024/02/10 13:28:45;;;;;;;;;;;9.80;84.20;;;;;;5014778;28;87787;-59
2024/02/10 13:31:11;;;;;;;;;;;9.80;84.30;;;;;;5017955;28;86914;-59
2024/02/10 13:33:39;;;;;;;;;;;9.80;84.10;;;;;;5015473;28;88557;-59
2024/02/10 13:36:07;;;;;;;;;;;9.80;84.10;;;;;;5017241;28;87954;-59
2024/02/10 14:00:29;;;;;;;;;;;9.90;84.10;;;;;;5014458;28;86963;-58
2024/02/10 14:03:00;;;;;;;;;;;9.90;84.20;;;;;;5013677;28;89774;-59
2024/02/10 14:10:46;;;;;;;;;;;9.90;84.10;;;;;;5008549;28;87212;-59
2024/02/10 14:13:17;;;;;;;;;;;10.00;84.20;;;;;;5015733;28;87028;-59
2024/02/10 14:15:53;;;;;;;;;;;9.90;84.20;;;;;;5015607;28;88099;-58
2024/02/10 14:18:25;;;;;;;;;;;10.00;84.10;;;;;;5017866;28;88541;-59
2024/02/10 14:20:57;;;;;;;;;;;10.00;84.00;;;;;;5015193;28;87930;-59
2024/02/10 14:23:26;;;;;;;;;;;10.00;84.00;;;;;;5014344;28;87403;-59
2024/02/10 14:25:52;;;;;;;;;;;10.00;84.10;;;;;;5016877;28;87404;-59
2024/02/10 14:28:34;;;;;;;;;;;10.00;84.10;;;;;;5014737;28;87831;-59
2024/02/10 14:31:02;;;;;;;;;;;10.00;84.00;;;;;;5018057;28;87395;-58
2024/02/10 14:33:33;;;;;;;;;;;10.00;84.00;;;;;;5008807;28;87058;-58
2024/02/10 14:36:14;;;;;;;;;;;10.00;84.00;;;;;;5008586;28;88186;-59
2024/02/10 14:38:58;;;;;;;;;;;10.00;84.20;;;;;;5015164;28;87663;-59
2024/02/10 14:41:25;;;;;;;;;;;10.00;84.20;;;;;;5016969;28;86985;-59
2024/02/10 14:43:51;;;;;;;;;;;10.00;84.20;;;;;;5013565;28;89215;-59
2024/02/10 14:46:16;;;;;;;;;;;10.00;84.10;;;;;;5014269;28;86261;-59
2024/02/10 14:48:43;;;;;;;;;;;10.00;84.10;;;;;;5012443;28;86911;-59
2024/02/10 14:51:11;;;;;;;;;;;10.00;84.10;;;;;;5016460;28;87560;-58
2024/02/10 14:53:38;;;;;;;;;;;10.00;84.20;;;;;;5014574;28;87949;-59